sensor_id;sensor_type;location;lat;lon;timestamp;pressure;altitude;pressure_sealevel;temperature;humidity
27840;BME280;15207;42.182;24.308;2023-05-03T00:02:10;99789.34;;;12.85;49.23
27840;BME280;15207;42.182;24.308;2023-05-03T00:04:36;99785.81;;;12.73;49.33
27840;BME280;15207;42.182;24.308;2023-05-03T00:07:03;99779.22;;;12.66;49.76
27840;BME280;15207;42.182;24.308;2023-05-03T00:09:29;99777.00;;;12.60;49.49
27840;BME280;15207;42.182;24.308;2023-05-03T00:11:54;99771.28;;;12.64;49.96
27840;BME280;15207;42.182;24.308;2023-05-03T00:14:20;99772.84;;;12.78;49.65
27840;BME280;15207;42.182;24.308;2023-05-03T00:16:45;99779.44;;;12.74;49.40
27840;BME280;15207;42.182;24.308;2023-05-03T00:19:11;99775.16;;;12.94;49.28
27840;BME280;15207;42.182;24.308;2023-05-03T00:21:36;99767.44;;;13.01;49.34
27840;BME280;15207;42.182;24.308;2023-05-03T00:24:02;99758.47;;;13.12;49.74
27840;BME280;15207;42.182;24.308;2023-05-03T00:26:27;99750.19;;;13.04;50.15
27840;BME280;15207;42.182;24.308;2023-05-03T00:28:53;99754.53;;;13.16;49.65
27840;BME280;15207;42.182;24.308;2023-05-03T00:31:18;99770.03;;;13.24;50.37
27840;BME280;15207;42.182;24.308;2023-05-03T00:33:44;99757.72;;;13.21;51.03
27840;BME280;15207;42.182;24.308;2023-05-03T00:36:11;99757.59;;;13.23;51.32
27840;BME280;15207;42.182;24.308;2023-05-03T00:38:37;99762.28;;;13.42;51.58
27840;BME280;15207;42.182;24.308;2023-05-03T00:41:03;99750.56;;;13.32;51.37
27840;BME280;15207;42.182;24.308;2023-05-03T00:43:30;99739.66;;;13.12;52.46
27840;BME280;15207;42.182;24.308;2023-05-03T00:45:57;99736.16;;;12.89;51.21
27840;BME280;15207;42.182;24.308;2023-05-03T00:48:24;99749.72;;;12.99;50.03
27840;BME280;15207;42.182;24.308;2023-05-03T00:50:50;99744.66;;;13.17;49.07
27840;BME280;15207;42.182;24.308;2023-05-03T00:53:18;99741.31;;;13.25;48.56
27840;BME280;15207;42.182;24.308;2023-05-03T00:55:44;99751.44;;;13.32;48.67
27840;BME280;15207;42.182;24.308;2023-05-03T00:58:10;99755.41;;;13.17;48.57
27840;BME280;15207;42.182;24.308;2023-05-03T01:00:36;99755.59;;;13.25;48.93
27840;BME280;15207;42.182;24.308;2023-05-03T01:03:01;99757.34;;;13.15;48.65
27840;BME280;15207;42.182;24.308;2023-05-03T01:05:32;99742.50;;;12.99;49.58
27840;BME280;15207;42.182;24.308;2023-05-03T01:08:10;99737.56;;;12.83;49.55
27840;BME280;15207;42.182;24.308;2023-05-03T01:13:56;99742.91;;;12.72;49.32
27840;BME280;15207;42.182;24.308;2023-05-03T01:16:38;99747.91;;;12.88;49.47
27840;BME280;15207;42.182;24.308;2023-05-03T01:19:14;99750.41;;;13.12;49.02
27840;BME280;15207;42.182;24.308;2023-05-03T01:21:46;99746.25;;;13.19;49.20
27840;BME280;15207;42.182;24.308;2023-05-03T01:24:17;99758.31;;;13.25;48.09
27840;BME280;15207;42.182;24.308;2023-05-03T01:26:46;99752.81;;;13.27;48.32
27840;BME280;15207;42.182;24.308;2023-05-03T01:29:13;99744.25;;;13.33;49.28
27840;BME280;15207;42.182;24.308;2023-05-03T01:31:44;99740.63;;;13.44;52.27
27840;BME280;15207;42.182;24.308;2023-05-03T01:37:07;99731.41;;;13.25;54.28
27840;BME280;15207;42.182;24.308;2023-05-03T01:39:36;99738.00;;;13.32;60.75
27840;BME280;15207;42.182;24.308;2023-05-03T01:42:03;99734.38;;;13.22;59.38
27840;BME280;15207;42.182;24.308;2023-05-03T01:44:30;99722.09;;;12.96;59.45
27840;BME280;15207;42.182;24.308;2023-05-03T01:46:57;99727.03;;;12.80;57.67
27840;BME280;15207;42.182;24.308;2023-05-03T01:49:23;99714.16;;;12.39;58.47
27840;BME280;15207;42.182;24.308;2023-05-03T01:51:49;99714.28;;;12.26;56.34
27840;BME280;15207;42.182;24.308;2023-05-03T01:54:15;99720.16;;;12.20;56.95
27840;BME280;15207;42.182;24.308;2023-05-03T01:56:41;99711.25;;;12.08;57.23
27840;BME280;15207;42.182;24.308;2023-05-03T01:59:06;99697.75;;;11.97;58.07
27840;BME280;15207;42.182;24.308;2023-05-03T02:01:32;99701.59;;;12.06;58.37
27840;BME280;15207;42.182;24.308;2023-05-03T02:03:58;99705.00;;;12.08;58.73
27840;BME280;15207;42.182;24.308;2023-05-03T02:06:24;99714.41;;;12.25;59.30
27840;BME280;15207;42.182;24.308;2023-05-03T02:08:51;99715.38;;;12.24;60.52
27840;BME280;15207;42.182;24.308;2023-05-03T02:11:17;99706.25;;;12.15;61.04
27840;BME280;15207;42.182;24.308;2023-05-03T02:13:42;99699.22;;;11.89;60.04
27840;BME280;15207;42.182;24.308;2023-05-03T02:16:08;99706.19;;;11.81;61.56
27840;BME280;15207;42.182;24.308;2023-05-03T02:18:34;99710.44;;;11.95;59.89
27840;BME280;15207;42.182;24.308;2023-05-03T02:21:00;99711.41;;;11.82;59.19
27840;BME280;15207;42.182;24.308;2023-05-03T02:23:26;99705.47;;;11.90;59.61
27840;BME280;15207;42.182;24.308;2023-05-03T02:25:51;99710.19;;;11.86;60.25
27840;BME280;15207;42.182;24.308;2023-05-03T02:28:17;99707.00;;;11.81;60.05
27840;BME280;15207;42.182;24.308;2023-05-03T02:30:42;99706.28;;;11.79;59.79
27840;BME280;15207;42.182;24.308;2023-05-03T02:33:08;99706.03;;;11.82;60.83
27840;BME280;15207;42.182;24.308;2023-05-03T02:35:34;99707.88;;;11.93;59.16
27840;BME280;15207;42.182;24.308;2023-05-03T02:38:00;99708.22;;;11.77;59.41
27840;BME280;15207;42.182;24.308;2023-05-03T02:40:25;99702.63;;;11.69;60.46
27840;BME280;15207;42.182;24.308;2023-05-03T02:42:51;99710.91;;;11.77;60.40
27840;BME280;15207;42.182;24.308;2023-05-03T02:45:17;99705.09;;;11.83;61.36
27840;BME280;15207;42.182;24.308;2023-05-03T02:47:42;99701.75;;;11.68;61.49
27840;BME280;15207;42.182;24.308;2023-05-03T02:50:08;99708.47;;;11.74;61.43
27840;BME280;15207;42.182;24.308;2023-05-03T02:52:34;99718.34;;;11.73;60.99
27840;BME280;15207;42.182;24.308;2023-05-03T02:55:00;99707.00;;;11.81;60.79
27840;BME280;15207;42.182;24.308;2023-05-03T02:57:25;99715.44;;;11.76;60.78
27840;BME280;15207;42.182;24.308;2023-05-03T02:59:51;99716.16;;;11.67;62.39
27840;BME280;15207;42.182;24.308;2023-05-03T03:02:17;99716.38;;;11.64;61.60
27840;BME280;15207;42.182;24.308;2023-05-03T03:04:43;99716.16;;;11.78;62.73
27840;BME280;15207;42.182;24.308;2023-05-03T03:07:09;99727.28;;;11.85;62.39
27840;BME280;15207;42.182;24.308;2023-05-03T03:09:34;99733.63;;;11.96;61.38
27840;BME280;15207;42.182;24.308;2023-05-03T03:12:00;99731.91;;;11.83;62.19
27840;BME280;15207;42.182;24.308;2023-05-03T03:14:29;99744.84;;;11.78;61.94
27840;BME280;15207;42.182;24.308;2023-05-03T03:16:56;99743.59;;;11.82;61.58
27840;BME280;15207;42.182;24.308;2023-05-03T03:19:22;99743.34;;;11.74;62.26
27840;BME280;15207;42.182;24.308;2023-05-03T03:21:48;99742.84;;;11.69;63.03
27840;BME280;15207;42.182;24.308;2023-05-03T03:24:13;99729.94;;;11.74;62.53
27840;BME280;15207;42.182;24.308;2023-05-03T03:26:40;99746.94;;;11.50;63.28
27840;BME280;15207;42.182;24.308;2023-05-03T03:29:05;99759.81;;;11.33;64.56
27840;BME280;15207;42.182;24.308;2023-05-03T03:31:34;99761.34;;;11.24;64.67
27840;BME280;15207;42.182;24.308;2023-05-03T03:34:00;99772.41;;;11.20;65.26
27840;BME280;15207;42.182;24.308;2023-05-03T03:36:25;99759.84;;;11.45;64.22
27840;BME280;15207;42.182;24.308;2023-05-03T03:38:52;99782.16;;;11.45;64.92
27840;BME280;15207;42.182;24.308;2023-05-03T03:41:18;99785.44;;;11.37;65.44
27840;BME280;15207;42.182;24.308;2023-05-03T03:43:44;99782.63;;;11.15;66.43
27840;BME280;15207;42.182;24.308;2023-05-03T03:46:10;99782.72;;;11.13;66.99
27840;BME280;15207;42.182;24.308;2023-05-03T03:48:35;99787.47;;;11.09;68.04
27840;BME280;15207;42.182;24.308;2023-05-03T03:51:01;99794.16;;;11.28;68.16
27840;BME280;15207;42.182;24.308;2023-05-03T03:53:27;99805.44;;;11.45;66.92
27840;BME280;15207;42.182;24.308;2023-05-03T03:55:52;99801.09;;;11.55;66.62
27840;BME280;15207;42.182;24.308;2023-05-03T03:58:18;99800.47;;;11.51;66.48
27840;BME280;15207;42.182;24.308;2023-05-03T04:00:45;99814.78;;;11.39;67.38
27840;BME280;15207;42.182;24.308;2023-05-03T04:03:14;99820.91;;;11.41;68.52
27840;BME280;15207;42.182;24.308;2023-05-03T04:05:39;99824.56;;;11.40;68.41
27840;BME280;15207;42.182;24.308;2023-05-03T04:08:05;99837.91;;;11.29;68.88
27840;BME280;15207;42.182;24.308;2023-05-03T04:10:30;99845.03;;;11.41;68.72
27840;BME280;15207;42.182;24.308;2023-05-03T04:12:56;99848.97;;;11.48;68.41
27840;BME280;15207;42.182;24.308;2023-05-03T04:15:22;99852.34;;;11.63;68.41
27840;BME280;15207;42.182;24.308;2023-05-03T04:17:47;99864.81;;;11.76;67.88
27840;BME280;15207;42.182;24.308;2023-05-03T04:20:14;99874.16;;;11.83;67.86
27840;BME280;15207;42.182;24.308;2023-05-03T04:22:44;99876.13;;;11.93;68.20
27840;BME280;15207;42.182;24.308;2023-05-03T04:25:11;99883.81;;;11.97;69.74
27840;BME280;15207;42.182;24.308;2023-05-03T04:27:43;99887.59;;;11.95;71.67
27840;BME280;15207;42.182;24.308;2023-05-03T04:30:09;99895.50;;;12.09;72.59
27840;BME280;15207;42.182;24.308;2023-05-03T04:32:36;99894.09;;;12.03;74.44
27840;BME280;15207;42.182;24.308;2023-05-03T04:35:07;99902.25;;;12.15;77.13
27840;BME280;15207;42.182;24.308;2023-05-03T04:37:37;99900.50;;;12.14;76.56
27840;BME280;15207;42.182;24.308;2023-05-03T04:40:04;99904.94;;;12.26;79.04
27840;BME280;15207;42.182;24.308;2023-05-03T04:42:33;99908.13;;;12.20;79.26
27840;BME280;15207;42.182;24.308;2023-05-03T04:44:59;99911.53;;;11.98;82.22
27840;BME280;15207;42.182;24.308;2023-05-03T04:47:28;99913.75;;;12.04;83.93
27840;BME280;15207;42.182;24.308;2023-05-03T04:49:55;99904.09;;;11.77;84.01
27840;BME280;15207;42.182;24.308;2023-05-03T04:52:21;99904.47;;;11.72;86.17
27840;BME280;15207;42.182;24.308;2023-05-03T04:54:46;99894.41;;;11.38;87.51
27840;BME280;15207;42.182;24.308;2023-05-03T04:57:12;99894.47;;;11.13;89.97
27840;BME280;15207;42.182;24.308;2023-05-03T04:59:38;99896.28;;;11.12;91.39
27840;BME280;15207;42.182;24.308;2023-05-03T05:02:03;99901.81;;;11.22;91.50
27840;BME280;15207;42.182;24.308;2023-05-03T05:04:29;99903.88;;;11.18;91.44
27840;BME280;15207;42.182;24.308;2023-05-03T05:06:55;99912.06;;;11.04;91.66
27840;BME280;15207;42.182;24.308;2023-05-03T05:09:24;99913.16;;;10.88;91.41
27840;BME280;15207;42.182;24.308;2023-05-03T05:11:50;99905.00;;;10.90;91.54
27840;BME280;15207;42.182;24.308;2023-05-03T05:14:16;99909.50;;;10.76;91.46
27840;BME280;15207;42.182;24.308;2023-05-03T05:16:42;99919.69;;;10.71;89.82
27840;BME280;15207;42.182;24.308;2023-05-03T05:19:07;99925.69;;;10.49;88.47
27840;BME280;15207;42.182;24.308;2023-05-03T05:21:33;99921.09;;;10.51;86.36
27840;BME280;15207;42.182;24.308;2023-05-03T05:23:59;99926.03;;;10.70;87.54
27840;BME280;15207;42.182;24.308;2023-05-03T05:26:26;99930.94;;;10.76;86.72
27840;BME280;15207;42.182;24.308;2023-05-03T05:28:53;99928.25;;;10.63;88.66
27840;BME280;15207;42.182;24.308;2023-05-03T05:31:18;99927.31;;;10.64;91.22
27840;BME280;15207;42.182;24.308;2023-05-03T05:33:44;99928.69;;;10.70;88.66
27840;BME280;15207;42.182;24.308;2023-05-03T05:36:10;99938.69;;;10.68;89.09
27840;BME280;15207;42.182;24.308;2023-05-03T05:38:36;99930.41;;;10.58;89.10
27840;BME280;15207;42.182;24.308;2023-05-03T05:41:02;99933.63;;;10.50;89.48
27840;BME280;15207;42.182;24.308;2023-05-03T05:43:28;99934.97;;;10.43;89.66
27840;BME280;15207;42.182;24.308;2023-05-03T05:45:53;99933.72;;;10.62;89.95
27840;BME280;15207;42.182;24.308;2023-05-03T05:48:19;99920.75;;;10.55;89.74
27840;BME280;15207;42.182;24.308;2023-05-03T05:50:45;99912.72;;;10.68;90.34
27840;BME280;15207;42.182;24.308;2023-05-03T05:53:10;99910.69;;;10.59;90.35
27840;BME280;15207;42.182;24.308;2023-05-03T05:55:36;99914.34;;;10.71;91.98
27840;BME280;15207;42.182;24.308;2023-05-03T05:58:02;99919.06;;;10.80;91.20
27840;BME280;15207;42.182;24.308;2023-05-03T06:00:28;99923.03;;;10.75;90.13
27840;BME280;15207;42.182;24.308;2023-05-03T06:02:54;99930.75;;;10.66;91.36
27840;BME280;15207;42.182;24.308;2023-05-03T06:05:20;99931.28;;;10.45;93.13
27840;BME280;15207;42.182;24.308;2023-05-03T06:07:45;99927.53;;;10.48;93.98
27840;BME280;15207;42.182;24.308;2023-05-03T06:10:11;99934.91;;;10.44;94.07
27840;BME280;15207;42.182;24.308;2023-05-03T06:12:37;99936.63;;;10.45;95.33
27840;BME280;15207;42.182;24.308;2023-05-03T06:15:03;99936.69;;;10.31;94.92
27840;BME280;15207;42.182;24.308;2023-05-03T06:17:29;99925.44;;;10.39;95.55
27840;BME280;15207;42.182;24.308;2023-05-03T06:19:54;99950.38;;;10.67;97.86
27840;BME280;15207;42.182;24.308;2023-05-03T06:22:20;99944.03;;;10.81;95.47
27840;BME280;15207;42.182;24.308;2023-05-03T06:24:46;99937.81;;;10.80;94.89
27840;BME280;15207;42.182;24.308;2023-05-03T06:27:11;99924.50;;;10.79;93.46
27840;BME280;15207;42.182;24.308;2023-05-03T06:29:37;99927.19;;;10.66;94.43
27840;BME280;15207;42.182;24.308;2023-05-03T06:32:03;99936.84;;;10.68;96.37
27840;BME280;15207;42.182;24.308;2023-05-03T06:34:29;99940.81;;;10.50;93.27
27840;BME280;15207;42.182;24.308;2023-05-03T06:36:56;99931.44;;;10.42;92.19
27840;BME280;15207;42.182;24.308;2023-05-03T06:39:22;99924.75;;;10.63;91.34
27840;BME280;15207;42.182;24.308;2023-05-03T06:41:48;99928.81;;;10.68;90.68
27840;BME280;15207;42.182;24.308;2023-05-03T06:44:13;99933.31;;;10.81;93.57
27840;BME280;15207;42.182;24.308;2023-05-03T06:46:40;99933.31;;;10.81;90.04
27840;BME280;15207;42.182;24.308;2023-05-03T06:49:05;99928.25;;;10.89;92.66
27840;BME280;15207;42.182;24.308;2023-05-03T06:51:31;99920.94;;;11.17;92.38
27840;BME280;15207;42.182;24.308;2023-05-03T06:53:59;99925.09;;;11.34;88.82
27840;BME280;15207;42.182;24.308;2023-05-03T06:56:26;99932.69;;;11.41;86.97
27840;BME280;15207;42.182;24.308;2023-05-03T06:58:52;99924.88;;;11.62;87.30
27840;BME280;15207;42.182;24.308;2023-05-03T07:01:18;99933.47;;;11.67;89.25
27840;BME280;15207;42.182;24.308;2023-05-03T07:03:45;99934.19;;;11.69;86.95
27840;BME280;15207;42.182;24.308;2023-05-03T07:06:11;99918.31;;;11.90;87.45
27840;BME280;15207;42.182;24.308;2023-05-03T07:08:37;99907.47;;;12.16;91.36
27840;BME280;15207;42.182;24.308;2023-05-03T07:11:03;99916.75;;;11.99;85.87
27840;BME280;15207;42.182;24.308;2023-05-03T07:13:29;99905.25;;;12.10;85.88
27840;BME280;15207;42.182;24.308;2023-05-03T07:15:54;99894.59;;;12.33;89.01
27840;BME280;15207;42.182;24.308;2023-05-03T07:18:20;99896.44;;;12.44;87.53
27840;BME280;15207;42.182;24.308;2023-05-03T07:20:46;99883.75;;;12.46;84.91
27840;BME280;15207;42.182;24.308;2023-05-03T07:23:11;99879.03;;;12.14;82.14
27840;BME280;15207;42.182;24.308;2023-05-03T07:25:37;99887.16;;;12.37;81.49
27840;BME280;15207;42.182;24.308;2023-05-03T07:28:03;99887.03;;;12.50;82.99
27840;BME280;15207;42.182;24.308;2023-05-03T07:30:29;99885.38;;;12.83;82.14
27840;BME280;15207;42.182;24.308;2023-05-03T07:32:55;99897.97;;;13.05;80.63
27840;BME280;15207;42.182;24.308;2023-05-03T07:35:21;99886.59;;;12.79;76.53
27840;BME280;15207;42.182;24.308;2023-05-03T07:37:47;99883.03;;;12.67;79.22
27840;BME280;15207;42.182;24.308;2023-05-03T07:40:13;99886.56;;;12.67;78.73
27840;BME280;15207;42.182;24.308;2023-05-03T07:42:38;99905.03;;;12.72;76.37
27840;BME280;15207;42.182;24.308;2023-05-03T07:45:05;99893.44;;;12.83;78.74
27840;BME280;15207;42.182;24.308;2023-05-03T07:47:31;99886.09;;;12.85;79.05
27840;BME280;15207;42.182;24.308;2023-05-03T07:49:57;99886.94;;;12.63;74.20
27840;BME280;15207;42.182;24.308;2023-05-03T07:52:22;99892.19;;;12.76;74.83
27840;BME280;15207;42.182;24.308;2023-05-03T07:54:48;99884.03;;;12.77;74.84
27840;BME280;15207;42.182;24.308;2023-05-03T07:57:14;99886.81;;;12.87;76.07
27840;BME280;15207;42.182;24.308;2023-05-03T07:59:43;99880.47;;;13.00;76.06
27840;BME280;15207;42.182;24.308;2023-05-03T08:02:08;99883.38;;;13.31;74.01
27840;BME280;15207;42.182;24.308;2023-05-03T08:04:34;99861.50;;;13.13;74.19
27840;BME280;15207;42.182;24.308;2023-05-03T08:07:03;99853.44;;;13.13;71.93
27840;BME280;15207;42.182;24.308;2023-05-03T08:09:29;99839.63;;;13.06;74.36
27840;BME280;15207;42.182;24.308;2023-05-03T08:11:55;99828.22;;;13.25;73.94
27840;BME280;15207;42.182;24.308;2023-05-03T08:14:22;99842.84;;;13.44;71.80
27840;BME280;15207;42.182;24.308;2023-05-03T08:16:48;99883.72;;;13.60;72.18
27840;BME280;15207;42.182;24.308;2023-05-03T08:19:13;99878.28;;;13.72;69.64
27840;BME280;15207;42.182;24.308;2023-05-03T08:21:39;99873.53;;;13.64;72.42
27840;BME280;15207;42.182;24.308;2023-05-03T08:24:05;99853.13;;;13.83;71.52
27840;BME280;15207;42.182;24.308;2023-05-03T08:26:32;99845.41;;;14.11;69.66
27840;BME280;15207;42.182;24.308;2023-05-03T08:28:58;99865.19;;;14.43;69.95
27840;BME280;15207;42.182;24.308;2023-05-03T08:31:28;99857.03;;;14.54;69.46
27840;BME280;15207;42.182;24.308;2023-05-03T08:33:55;99851.81;;;14.31;68.16
27840;BME280;15207;42.182;24.308;2023-05-03T08:36:21;99849.56;;;14.36;65.17
27840;BME280;15207;42.182;24.308;2023-05-03T08:38:48;99845.88;;;14.37;66.77
27840;BME280;15207;42.182;24.308;2023-05-03T08:41:21;99838.50;;;14.39;65.50
27840;BME280;15207;42.182;24.308;2023-05-03T08:43:54;99848.25;;;14.31;62.04
27840;BME280;15207;42.182;24.308;2023-05-03T08:46:21;99855.53;;;13.97;64.17
27840;BME280;15207;42.182;24.308;2023-05-03T08:48:48;99860.09;;;13.85;65.88
27840;BME280;15207;42.182;24.308;2023-05-03T08:51:16;99865.53;;;14.28;65.04
27840;BME280;15207;42.182;24.308;2023-05-03T08:53:42;99856.44;;;14.08;64.74
27840;BME280;15207;42.182;24.308;2023-05-03T08:56:09;99848.31;;;14.19;65.21
27840;BME280;15207;42.182;24.308;2023-05-03T08:58:37;99829.25;;;14.63;66.66
27840;BME280;15207;42.182;24.308;2023-05-03T09:01:04;99823.53;;;14.47;63.36
27840;BME280;15207;42.182;24.308;2023-05-03T09:03:32;99825.19;;;14.17;64.38
27840;BME280;15207;42.182;24.308;2023-05-03T09:05:57;99838.34;;;14.10;64.04
27840;BME280;15207;42.182;24.308;2023-05-03T09:08:29;99847.13;;;14.12;64.12
27840;BME280;15207;42.182;24.308;2023-05-03T09:10:56;99847.66;;;14.27;63.43
27840;BME280;15207;42.182;24.308;2023-05-03T09:13:29;99853.50;;;14.53;62.34
27840;BME280;15207;42.182;24.308;2023-05-03T09:15:58;99830.09;;;14.33;62.36
27840;BME280;15207;42.182;24.308;2023-05-03T09:18:23;99828.16;;;14.45;61.33
27840;BME280;15207;42.182;24.308;2023-05-03T09:20:50;99822.84;;;14.23;63.95
27840;BME280;15207;42.182;24.308;2023-05-03T09:23:17;99817.28;;;14.25;62.54
27840;BME280;15207;42.182;24.308;2023-05-03T09:25:49;99810.78;;;14.27;64.21
27840;BME280;15207;42.182;24.308;2023-05-03T09:28:19;99803.69;;;14.58;63.26
27840;BME280;15207;42.182;24.308;2023-05-03T09:30:45;99806.09;;;14.82;61.54
27840;BME280;15207;42.182;24.308;2023-05-03T09:33:12;99803.34;;;15.13;59.69
27840;BME280;15207;42.182;24.308;2023-05-03T09:35:57;99805.09;;;15.54;56.50
27840;BME280;15207;42.182;24.308;2023-05-03T09:38:31;99785.63;;;15.40;57.88
27840;BME280;15207;42.182;24.308;2023-05-03T09:40:57;99808.38;;;15.47;59.27
27840;BME280;15207;42.182;24.308;2023-05-03T09:43:24;99799.69;;;15.34;58.97
27840;BME280;15207;42.182;24.308;2023-05-03T09:45:49;99797.41;;;15.59;55.03
27840;BME280;15207;42.182;24.308;2023-05-03T09:48:16;99808.38;;;15.47;57.56
27840;BME280;15207;42.182;24.308;2023-05-03T09:50:43;99809.91;;;15.40;57.75
27840;BME280;15207;42.182;24.308;2023-05-03T09:53:09;99801.91;;;15.09;57.21
27840;BME280;15207;42.182;24.308;2023-05-03T09:55:39;99798.34;;;14.99;59.08
27840;BME280;15207;42.182;24.308;2023-05-03T09:58:06;99802.28;;;14.94;60.01
27840;BME280;15207;42.182;24.308;2023-05-03T10:03:06;99793.69;;;15.11;61.84
27840;BME280;15207;42.182;24.308;2023-05-03T10:05:37;99798.00;;;15.53;61.36
27840;BME280;15207;42.182;24.308;2023-05-03T10:08:06;99792.56;;;15.43;60.54
27840;BME280;15207;42.182;24.308;2023-05-03T10:10:33;99795.06;;;15.05;60.20
27840;BME280;15207;42.182;24.308;2023-05-03T10:13:01;99786.69;;;14.98;59.82
27840;BME280;15207;42.182;24.308;2023-05-03T10:15:28;99784.72;;;15.10;61.62
27840;BME280;15207;42.182;24.308;2023-05-03T10:17:56;99774.19;;;14.97;62.32
27840;BME280;15207;42.182;24.308;2023-05-03T10:20:40;99761.31;;;14.70;63.22
27840;BME280;15207;42.182;24.308;2023-05-03T10:23:10;99756.06;;;14.68;63.39
27840;BME280;15207;42.182;24.308;2023-05-03T10:25:38;99757.97;;;14.77;63.42
27840;BME280;15207;42.182;24.308;2023-05-03T10:28:08;99764.47;;;14.75;64.80
27840;BME280;15207;42.182;24.308;2023-05-03T10:35:52;99762.16;;;14.29;69.83
27840;BME280;15207;42.182;24.308;2023-05-03T10:38:23;99772.81;;;14.31;72.22
27840;BME280;15207;42.182;24.308;2023-05-03T10:40:50;99773.38;;;14.34;69.75
27840;BME280;15207;42.182;24.308;2023-05-03T10:46:07;99781.97;;;14.80;71.51
27840;BME280;15207;42.182;24.308;2023-05-03T10:48:36;99781.16;;;14.90;68.28
27840;BME280;15207;42.182;24.308;2023-05-03T10:53:52;99775.53;;;14.72;67.99
27840;BME280;15207;42.182;24.308;2023-05-03T10:56:18;99771.78;;;14.63;70.05
27840;BME280;15207;42.182;24.308;2023-05-03T10:58:48;99763.75;;;14.73;65.91
27840;BME280;15207;42.182;24.308;2023-05-03T11:01:22;99765.16;;;15.08;67.12
27840;BME280;15207;42.182;24.308;2023-05-03T11:04:01;99762.59;;;15.26;65.29
27840;BME280;15207;42.182;24.308;2023-05-03T11:06:37;99770.00;;;15.24;62.40
27840;BME280;15207;42.182;24.308;2023-05-03T11:09:08;99773.56;;;15.34;62.80
27840;BME280;15207;42.182;24.308;2023-05-03T11:11:39;99765.59;;;15.33;60.49
27840;BME280;15207;42.182;24.308;2023-05-03T11:14:06;99749.41;;;15.33;60.00
27840;BME280;15207;42.182;24.308;2023-05-03T11:16:33;99737.06;;;15.30;60.04
27840;BME280;15207;42.182;24.308;2023-05-03T11:19:01;99732.06;;;15.45;61.17
27840;BME280;15207;42.182;24.308;2023-05-03T11:21:27;99732.94;;;15.16;61.04
27840;BME280;15207;42.182;24.308;2023-05-03T11:23:52;99749.81;;;15.28;61.82
27840;BME280;15207;42.182;24.308;2023-05-03T11:26:18;99756.09;;;15.49;60.67
27840;BME280;15207;42.182;24.308;2023-05-03T11:28:47;99753.78;;;15.73;60.34
27840;BME280;15207;42.182;24.308;2023-05-03T11:31:13;99743.63;;;16.15;60.73
27840;BME280;15207;42.182;24.308;2023-05-03T11:33:40;99750.09;;;15.84;58.09
27840;BME280;15207;42.182;24.308;2023-05-03T11:36:06;99745.56;;;15.75;59.91
27840;BME280;15207;42.182;24.308;2023-05-03T11:38:35;99743.13;;;15.72;60.85
27840;BME280;15207;42.182;24.308;2023-05-03T11:41:11;99743.69;;;15.95;59.80
27840;BME280;15207;42.182;24.308;2023-05-03T11:43:42;99745.13;;;15.70;62.26
27840;BME280;15207;42.182;24.308;2023-05-03T11:46:08;99749.13;;;15.46;63.07
27840;BME280;15207;42.182;24.308;2023-05-03T11:48:34;99739.75;;;15.40;62.35
27840;BME280;15207;42.182;24.308;2023-05-03T11:51:06;99746.56;;;15.54;62.93
27840;BME280;15207;42.182;24.308;2023-05-03T11:53:32;99735.44;;;15.77;62.06
27840;BME280;15207;42.182;24.308;2023-05-03T11:55:59;99738.47;;;15.74;62.41
27840;BME280;15207;42.182;24.308;2023-05-03T11:58:25;99737.84;;;15.90;60.89
27840;BME280;15207;42.182;24.308;2023-05-03T12:00:55;99730.44;;;15.92;63.25
27840;BME280;15207;42.182;24.308;2023-05-03T12:03:23;99728.47;;;16.04;65.89
27840;BME280;15207;42.182;24.308;2023-05-03T12:05:51;99727.28;;;16.17;69.24
27840;BME280;15207;42.182;24.308;2023-05-03T12:08:18;99726.81;;;16.21;67.39
27840;BME280;15207;42.182;24.308;2023-05-03T12:10:46;99716.59;;;16.15;70.81
27840;BME280;15207;42.182;24.308;2023-05-03T12:13:11;99723.44;;;16.19;71.41
27840;BME280;15207;42.182;24.308;2023-05-03T12:15:38;99717.75;;;16.12;72.22
27840;BME280;15207;42.182;24.308;2023-05-03T12:18:11;99709.38;;;16.06;75.49
27840;BME280;15207;42.182;24.308;2023-05-03T12:20:38;99694.75;;;15.89;73.44
27840;BME280;15207;42.182;24.308;2023-05-03T12:23:08;99689.25;;;15.80;76.76
27840;BME280;15207;42.182;24.308;2023-05-03T12:25:35;99688.53;;;15.78;73.98
27840;BME280;15207;42.182;24.308;2023-05-03T12:28:03;99676.38;;;15.64;74.21
27840;BME280;15207;42.182;24.308;2023-05-03T12:30:29;99676.63;;;15.61;79.54
27840;BME280;15207;42.182;24.308;2023-05-03T12:32:55;99681.22;;;15.51;72.01
27840;BME280;15207;42.182;24.308;2023-05-03T12:35:21;99671.69;;;15.56;76.13
27840;BME280;15207;42.182;24.308;2023-05-03T12:37:48;99675.41;;;15.55;73.23
27840;BME280;15207;42.182;24.308;2023-05-03T12:40:14;99664.91;;;15.42;76.78
27840;BME280;15207;42.182;24.308;2023-05-03T12:42:41;99663.06;;;15.33;71.55
27840;BME280;15207;42.182;24.308;2023-05-03T12:45:09;99645.16;;;15.42;75.55
27840;BME280;15207;42.182;24.308;2023-05-03T12:47:35;99637.88;;;15.62;76.47
27840;BME280;15207;42.182;24.308;2023-05-03T12:50:02;99633.72;;;15.68;75.60
27840;BME280;15207;42.182;24.308;2023-05-03T12:52:28;99636.50;;;15.38;77.21
27840;BME280;15207;42.182;24.308;2023-05-03T12:54:57;99643.75;;;15.18;79.45
27840;BME280;15207;42.182;24.308;2023-05-03T12:57:23;99657.81;;;15.12;78.46
27840;BME280;15207;42.182;24.308;2023-05-03T12:59:49;99666.06;;;15.00;79.55
27840;BME280;15207;42.182;24.308;2023-05-03T13:02:19;99665.78;;;14.93;81.10
27840;BME280;15207;42.182;24.308;2023-05-03T13:04:44;99659.66;;;14.81;81.41
27840;BME280;15207;42.182;24.308;2023-05-03T13:07:10;99650.13;;;14.77;83.14
27840;BME280;15207;42.182;24.308;2023-05-03T13:09:44;99640.72;;;14.62;84.21